createdAt,value
2018-09-28T00:00:07.765Z,10.86
2018-09-28T00:01:07.645Z,10.94
2018-09-28T00:02:07.515Z,10.88
2018-09-28T00:03:07.390Z,10.77
2018-09-28T00:04:07.267Z,10.88
2018-09-28T00:05:07.141Z,10.74
2018-09-28T00:06:07.014Z,10.80
2018-09-28T00:07:06.893Z,10.88
2018-09-28T00:08:06.763Z,10.92
2018-09-28T00:09:06.643Z,11.06
2018-09-28T00:10:06.513Z,11.07
2018-09-28T00:11:06.388Z,11.02
2018-09-28T00:12:06.263Z,11.24
2018-09-28T00:13:06.136Z,11.21
2018-09-28T00:14:06.010Z,11.32
2018-09-28T00:15:05.885Z,11.36
2018-09-28T00:16:05.761Z,11.32
2018-09-28T00:17:05.637Z,11.39
2018-09-28T00:18:05.508Z,11.35
2018-09-28T00:19:05.385Z,11.31
2018-09-28T00:20:05.261Z,11.31
2018-09-28T00:21:05.134Z,11.14
2018-09-28T00:22:05.012Z,11.25
2018-09-28T00:23:04.883Z,11.06
2018-09-28T00:24:04.758Z,11.14
2018-09-28T00:25:04.631Z,11.10
2018-09-28T00:26:04.554Z,11.06
2018-09-28T00:27:04.384Z,10.91
2018-09-28T00:28:04.257Z,10.84
2018-09-28T00:29:04.130Z,10.86
2018-09-28T00:30:04.007Z,10.73
2018-09-28T00:31:03.880Z,10.73
2018-09-28T00:32:03.756Z,10.65
2018-09-28T00:33:03.629Z,10.60
2018-09-28T00:34:03.506Z,10.68
2018-09-28T00:35:03.380Z,10.74
2018-09-28T00:36:03.293Z,10.71
2018-09-28T00:37:03.130Z,10.62
2018-09-28T00:38:03.008Z,10.73
2018-09-28T00:39:02.878Z,10.65
2018-09-28T00:40:02.759Z,10.59
2018-09-28T00:41:02.630Z,10.68
2018-09-28T00:42:02.504Z,10.60
2018-09-28T00:43:02.377Z,10.60
2018-09-28T00:44:02.255Z,10.60
2018-09-28T00:45:02.142Z,10.71
2018-09-28T00:46:02.002Z,10.70
2018-09-28T00:47:01.875Z,10.99
2018-09-28T00:48:01.750Z,10.98
2018-09-28T00:49:01.626Z,11.02
2018-09-28T00:50:01.500Z,11.03
2018-09-28T00:51:01.381Z,10.92
2018-09-28T00:52:01.249Z,10.99
2018-09-28T00:53:01.122Z,10.83
2018-09-28T00:54:00.998Z,10.80
2018-09-28T00:55:00.875Z,10.71
2018-09-28T00:56:00.748Z,10.58
2018-09-28T00:57:00.622Z,10.59
2018-09-28T00:58:00.496Z,10.55
2018-09-28T00:59:00.372Z,10.51
2018-09-28T01:00:00.247Z,10.53
2018-09-28T01:01:00.119Z,10.44
2018-09-28T01:01:59.993Z,10.43
2018-09-28T01:02:59.869Z,10.55
2018-09-28T01:03:59.746Z,10.51
2018-09-28T01:04:59.620Z,10.43
2018-09-28T01:05:59.493Z,10.47
2018-09-28T01:06:59.369Z,10.58
2018-09-28T01:07:59.240Z,10.55
2018-09-28T01:08:59.116Z,10.43
2018-09-28T01:09:58.989Z,10.60
2018-09-28T01:10:58.864Z,10.59
2018-09-28T01:11:58.740Z,10.58
2018-09-28T01:12:58.615Z,10.56
2018-09-28T01:13:58.487Z,10.47
2018-09-28T01:14:58.363Z,10.43
2018-09-28T01:15:58.238Z,10.47
2018-09-28T01:16:58.113Z,10.47
2018-09-28T01:17:57.988Z,10.44
2018-09-28T01:18:57.861Z,10.43
2018-09-28T01:19:57.741Z,10.40
2018-09-28T01:20:57.614Z,10.44
2018-09-28T01:21:57.487Z,10.37
2018-09-28T01:22:57.359Z,10.43
2018-09-28T01:23:57.236Z,10.44
2018-09-28T01:24:57.107Z,10.40
2018-09-28T01:25:56.981Z,10.47
2018-09-28T01:26:56.857Z,10.39
2018-09-28T01:27:56.735Z,10.39
2018-09-28T01:28:56.604Z,10.32
2018-09-28T01:29:56.480Z,10.28
2018-09-28T01:30:56.356Z,10.25
2018-09-28T01:31:56.227Z,10.25
2018-09-28T01:32:56.102Z,10.33
2018-09-28T01:33:55.977Z,10.32
2018-09-28T01:34:55.851Z,10.30
2018-09-28T01:35:55.726Z,10.30
2018-09-28T01:36:55.602Z,10.30
2018-09-28T01:37:55.473Z,10.25
2018-09-28T01:38:55.351Z,10.28
2018-09-28T01:39:55.226Z,10.30
2018-09-28T01:40:55.097Z,10.34
2018-09-28T01:41:54.973Z,10.32
2018-09-28T01:42:54.850Z,10.26
2018-09-28T01:43:54.722Z,10.24
2018-09-28T01:44:54.597Z,10.28
2018-09-28T01:45:54.470Z,10.19
2018-09-28T01:46:54.344Z,10.15
2018-09-28T01:47:54.218Z,10.26
2018-09-28T01:48:54.092Z,10.21
2018-09-28T01:49:53.967Z,10.34
2018-09-28T01:50:53.841Z,10.36
2018-09-28T01:51:53.718Z,10.44
2018-09-28T01:52:53.591Z,10.39
2018-09-28T01:53:53.465Z,10.40
2018-09-28T01:54:53.339Z,10.39
2018-09-28T01:55:53.214Z,10.30
2018-09-28T01:56:53.085Z,10.24
2018-09-28T01:57:52.962Z,10.19
2018-09-28T01:58:52.835Z,10.19
2018-09-28T01:59:52.711Z,10.30
2018-09-28T02:00:52.583Z,10.25
2018-09-28T02:01:52.460Z,10.26
2018-09-28T02:02:52.333Z,10.18
2018-09-28T02:03:52.209Z,10.17
2018-09-28T02:04:52.080Z,10.17
2018-09-28T02:05:51.957Z,10.19
2018-09-28T02:06:51.830Z,10.18
2018-09-28T02:07:51.701Z,10.15
2018-09-28T02:08:51.577Z,10.18
2018-09-28T02:09:51.453Z,10.19
2018-09-28T02:10:51.326Z,10.17
2018-09-28T02:11:51.201Z,10.15
2018-09-28T02:12:51.074Z,10.15
2018-09-28T02:13:50.950Z,10.21
2018-09-28T02:14:50.826Z,10.06
2018-09-28T02:15:50.751Z,10.18
2018-09-28T02:16:50.571Z,10.18
2018-09-28T02:17:50.446Z,10.18
2018-09-28T02:18:50.321Z,10.21
2018-09-28T02:19:50.206Z,10.03
2018-09-28T02:20:50.069Z,10.17
2018-09-28T02:21:49.943Z,10.19
2018-09-28T02:22:49.820Z,10.07
2018-09-28T02:23:49.691Z,10.17
2018-09-28T02:24:49.566Z,10.18
2018-09-28T02:25:49.440Z,10.19
2018-09-28T02:26:49.313Z,10.15
2018-09-28T02:27:49.189Z,10.14
2018-09-28T02:28:49.065Z,10.06
2018-09-28T02:29:48.936Z,10.03
2018-09-28T02:30:48.811Z,10.01
2018-09-28T02:31:48.684Z,10.04
2018-09-28T02:32:48.558Z,10.17
2018-09-28T02:33:48.434Z,10.17
2018-09-28T02:34:48.310Z,10.12
2018-09-28T02:35:48.182Z,10.22
2018-09-28T02:36:48.052Z,10.21
2018-09-28T02:37:47.930Z,10.19
2018-09-28T02:38:47.804Z,10.21
2018-09-28T02:39:47.680Z,10.26
2018-09-28T02:40:47.553Z,10.21
2018-09-28T02:41:47.424Z,10.14
2018-09-28T02:42:47.302Z,10.18
2018-09-28T02:43:47.176Z,10.15
2018-09-28T02:44:47.049Z,10.12
2018-09-28T02:45:46.922Z,10.09
2018-09-28T02:46:46.796Z,10.07
2018-09-28T02:47:46.671Z,10.12
2018-09-28T02:48:46.545Z,10.15
2018-09-28T02:49:46.419Z,10.12
2018-09-28T02:50:46.295Z,10.17
2018-09-28T02:51:46.167Z,10.24
2018-09-28T02:52:46.041Z,10.18
2018-09-28T02:53:45.917Z,10.18
2018-09-28T02:54:45.789Z,10.19
2018-09-28T02:55:45.663Z,10.18
2018-09-28T02:56:45.622Z,10.14
2018-09-28T02:57:45.417Z,10.06
2018-09-28T02:58:45.285Z,10.00
2018-09-28T02:59:45.159Z,10.01
2018-09-28T03:00:45.033Z,10.06
2018-09-28T03:01:44.911Z,9.97
2018-09-28T03:02:44.784Z,9.94
2018-09-28T03:03:44.659Z,9.99
2018-09-28T03:04:44.529Z,9.99
2018-09-28T03:05:44.405Z,9.99
2018-09-28T03:06:44.277Z,9.88
2018-09-28T03:07:44.152Z,9.93
2018-09-28T03:08:44.026Z,9.96
2018-09-28T03:09:43.899Z,9.88
2018-09-28T03:10:43.857Z,9.88
2018-09-28T03:11:43.647Z,9.88
2018-09-28T03:12:43.525Z,9.96
2018-09-28T03:13:43.399Z,9.86
2018-09-28T03:14:43.271Z,9.88
2018-09-28T03:15:43.144Z,9.89
2018-09-28T03:16:43.018Z,9.86
2018-09-28T03:17:42.891Z,9.89
2018-09-28T03:18:42.783Z,9.83
2018-09-28T03:19:42.642Z,9.78
2018-09-28T03:20:42.521Z,9.83
2018-09-28T03:21:42.389Z,9.96
2018-09-28T03:22:42.261Z,9.86
2018-09-28T03:23:42.139Z,9.89
2018-09-28T03:24:42.014Z,10.06
2018-09-28T03:25:41.885Z,10.06
2018-09-28T03:26:41.757Z,10.18
2018-09-28T03:27:41.632Z,10.10
2018-09-28T03:28:41.504Z,10.18
2018-09-28T03:29:41.380Z,10.12
2018-09-28T03:30:41.261Z,10.18
2018-09-28T03:31:41.131Z,10.24
2018-09-28T03:32:41.001Z,10.09
2018-09-28T03:33:40.875Z,10.00
2018-09-28T03:34:40.749Z,10.01
2018-09-28T03:35:40.623Z,10.01
2018-09-28T03:36:40.497Z,9.97
2018-09-28T03:37:40.371Z,9.94
2018-09-28T03:38:40.246Z,9.91
2018-09-28T03:39:40.121Z,9.83
2018-09-28T03:40:40.065Z,9.86
2018-09-28T03:41:39.870Z,9.86
2018-09-28T03:42:39.743Z,9.89
2018-09-28T03:43:39.618Z,9.73
2018-09-28T03:44:39.489Z,9.78
2018-09-28T03:45:39.367Z,9.82
2018-09-28T03:46:39.240Z,9.75
2018-09-28T03:47:39.114Z,9.81
2018-09-28T03:48:38.992Z,9.75
2018-09-28T03:49:39.070Z,9.73
2018-09-28T03:50:38.737Z,9.83
2018-09-28T03:51:38.612Z,9.81
2018-09-28T03:52:38.481Z,9.75
2018-09-28T03:53:38.357Z,9.78
2018-09-28T03:54:38.232Z,9.88
2018-09-28T03:55:38.121Z,9.86
2018-09-28T03:56:37.978Z,9.91
2018-09-28T03:57:37.852Z,9.88
2018-09-28T03:58:37.727Z,9.82
2018-09-28T03:59:37.602Z,9.75
2018-09-28T04:00:37.472Z,9.89
2018-09-28T04:01:37.349Z,10.04
2018-09-28T04:02:37.222Z,10.01
2018-09-28T04:03:37.095Z,10.12
2018-09-28T04:04:36.966Z,10.10
2018-09-28T04:05:36.844Z,10.03
2018-09-28T04:06:36.714Z,10.19
2018-09-28T04:07:36.591Z,10.40
2018-09-28T04:08:36.464Z,10.51
2018-09-28T04:09:36.336Z,10.25
2018-09-28T04:10:36.215Z,10.15
2018-09-28T04:11:36.085Z,10.15
2018-09-28T04:12:35.959Z,10.04
2018-09-28T04:13:35.836Z,10.12
2018-09-28T04:14:35.705Z,10.25
2018-09-28T04:15:35.582Z,10.18
2018-09-28T04:16:35.452Z,10.17
2018-09-28T04:17:35.328Z,10.18
2018-09-28T04:18:35.203Z,10.14
2018-09-28T04:19:35.080Z,10.14
2018-09-28T04:20:34.949Z,10.17
2018-09-28T04:21:34.824Z,10.09
2018-09-28T04:22:34.699Z,10.09
2018-09-28T04:23:34.573Z,10.01
2018-09-28T04:24:34.444Z,10.04
2018-09-28T04:25:34.317Z,10.14
2018-09-28T04:26:34.193Z,10.04
2018-09-28T04:27:34.071Z,10.06
2018-09-28T04:28:33.939Z,10.01
2018-09-28T04:29:33.814Z,10.07
2018-09-28T04:30:33.688Z,9.88
2018-09-28T04:31:33.661Z,9.82
2018-09-28T04:32:33.435Z,9.81
2018-09-28T04:33:33.409Z,9.67
2018-09-28T04:34:33.185Z,9.64
2018-09-28T04:35:33.058Z,9.66
2018-09-28T04:36:33.024Z,9.64
2018-09-28T04:37:32.807Z,9.70
2018-09-28T04:38:32.680Z,9.71
2018-09-28T04:39:32.557Z,9.63
2018-09-28T04:40:32.426Z,9.66
2018-09-28T04:41:32.299Z,9.64
2018-09-28T04:42:32.173Z,9.61
2018-09-28T04:43:32.049Z,9.58
2018-09-28T04:44:31.921Z,9.56
2018-09-28T04:45:31.842Z,9.57
2018-09-28T04:46:31.668Z,9.56
2018-09-28T04:47:31.542Z,9.58
2018-09-28T04:48:31.415Z,9.60
2018-09-28T04:49:31.290Z,9.61
2018-09-28T04:50:31.262Z,9.61
2018-09-28T04:51:31.039Z,9.60
2018-09-28T04:52:30.912Z,9.56
2018-09-28T04:53:30.786Z,9.57
2018-09-28T04:54:30.659Z,9.66
2018-09-28T04:55:30.532Z,9.66
2018-09-28T04:56:30.408Z,9.66
2018-09-28T04:57:30.281Z,9.58
2018-09-28T04:58:30.154Z,9.63
2018-09-28T04:59:30.027Z,9.71
2018-09-28T05:00:29.899Z,9.71
2018-09-28T05:01:29.774Z,9.75
2018-09-28T05:02:29.650Z,9.64
2018-09-28T05:03:29.522Z,9.64
2018-09-28T05:04:29.394Z,9.63
2018-09-28T05:05:29.269Z,9.60
2018-09-28T05:06:29.145Z,9.61
2018-09-28T05:07:29.015Z,9.61
2018-09-28T05:08:28.889Z,9.60
2018-09-28T05:09:28.765Z,9.50
2018-09-28T05:10:28.637Z,9.58
2018-09-28T05:11:28.510Z,9.63
2018-09-28T05:12:28.386Z,9.61
2018-09-28T05:13:28.261Z,9.57
2018-09-28T05:14:28.135Z,9.57
2018-09-28T05:15:28.006Z,9.53
2018-09-28T05:16:27.881Z,9.53
2018-09-28T05:17:27.752Z,9.52
2018-09-28T05:18:27.626Z,9.52
2018-09-28T05:19:27.517Z,9.53
2018-09-28T05:20:27.378Z,9.52
2018-09-28T05:21:27.247Z,9.60
2018-09-28T05:22:27.122Z,9.64
2018-09-28T05:23:26.996Z,9.63
2018-09-28T05:24:26.867Z,9.64
2018-09-28T05:25:26.815Z,9.67
2018-09-28T05:26:26.616Z,9.71
2018-09-28T05:27:26.491Z,9.75
2018-09-28T05:28:26.368Z,9.75
2018-09-28T05:29:26.237Z,9.70
2018-09-28T05:30:26.113Z,9.66
2018-09-28T05:31:26.033Z,9.64
2018-09-28T05:32:26.053Z,9.61
2018-09-28T05:33:25.734Z,9.60
2018-09-28T05:34:25.605Z,9.52
2018-09-28T05:35:25.479Z,9.61
2018-09-28T05:36:25.355Z,9.52
2018-09-28T05:37:25.226Z,9.52
2018-09-28T05:38:25.101Z,9.56
2018-09-28T05:39:24.997Z,9.56
2018-09-28T05:40:24.849Z,9.53
2018-09-28T05:41:24.722Z,9.58
2018-09-28T05:42:24.595Z,9.58
2018-09-28T05:43:24.470Z,9.63
2018-09-28T05:44:24.342Z,9.61
2018-09-28T05:45:24.218Z,9.64
2018-09-28T05:46:24.159Z,9.64
2018-09-28T05:47:23.964Z,9.64
2018-09-28T05:48:23.837Z,9.70
2018-09-28T05:49:23.715Z,9.67
2018-09-28T05:50:23.586Z,9.66
2018-09-28T05:51:23.474Z,9.64
2018-09-28T05:52:23.332Z,9.68
2018-09-28T05:53:23.205Z,9.60
2018-09-28T05:54:23.081Z,9.64
2018-09-28T05:55:22.955Z,9.61
2018-09-28T05:56:22.828Z,9.61
2018-09-28T05:57:22.700Z,9.56
2018-09-28T05:58:22.581Z,9.53
2018-09-28T05:59:22.449Z,9.57
2018-09-28T06:00:22.323Z,9.52
2018-09-28T06:01:22.196Z,9.53
2018-09-28T06:02:22.071Z,9.63
2018-09-28T06:03:21.945Z,9.58
2018-09-28T06:04:21.817Z,9.58
2018-09-28T06:05:21.718Z,9.64
2018-09-28T06:06:21.566Z,9.66
2018-09-28T06:07:21.439Z,9.56
2018-09-28T06:08:21.312Z,9.52
2018-09-28T06:09:21.188Z,9.58
2018-09-28T06:10:21.061Z,9.58
2018-09-28T06:11:20.932Z,9.57
2018-09-28T06:12:20.809Z,9.60
2018-09-28T06:13:20.682Z,9.53
2018-09-28T06:14:20.554Z,9.53
2018-09-28T06:15:20.432Z,9.49
2018-09-28T06:16:20.307Z,9.52
2018-09-28T06:17:20.175Z,9.53
2018-09-28T06:18:20.050Z,9.58
2018-09-28T06:19:19.922Z,9.57
2018-09-28T06:20:19.797Z,9.49
2018-09-28T06:21:19.671Z,9.49
2018-09-28T06:22:19.543Z,9.52
2018-09-28T06:23:19.421Z,9.40
2018-09-28T06:24:19.416Z,9.40
2018-09-28T06:25:19.169Z,9.49
2018-09-28T06:26:19.041Z,9.57
2018-09-28T06:27:18.913Z,9.53
2018-09-28T06:28:18.791Z,9.53
2018-09-28T06:29:18.657Z,9.61
2018-09-28T06:30:18.580Z,9.68
2018-09-28T06:31:18.408Z,9.70
2018-09-28T06:32:18.279Z,9.76
2018-09-28T06:33:18.153Z,9.88
2018-09-28T06:34:18.028Z,10.01
2018-09-28T06:35:17.908Z,10.15
2018-09-28T06:36:17.812Z,10.39
2018-09-28T06:37:17.652Z,10.56
2018-09-28T06:38:17.525Z,10.65
2018-09-28T06:39:17.405Z,10.95
2018-09-28T06:40:17.273Z,11.17
2018-09-28T06:41:17.147Z,11.41
2018-09-28T06:42:17.041Z,11.67
2018-09-28T06:43:16.899Z,11.94
2018-09-28T06:44:16.940Z,12.12
2018-09-28T06:45:16.643Z,12.34
2018-09-28T06:46:16.519Z,12.44
2018-09-28T06:47:16.393Z,12.56
2018-09-28T06:48:16.350Z,12.67
2018-09-28T06:49:16.147Z,12.79
2018-09-28T06:50:16.021Z,13.03
2018-09-28T06:51:15.919Z,13.20
2018-09-28T06:52:15.774Z,13.38
2018-09-28T06:53:15.646Z,13.44
2018-09-28T06:54:15.552Z,13.54
2018-09-28T06:55:15.398Z,13.58
2018-09-28T06:56:15.273Z,13.74
2018-09-28T06:57:15.148Z,13.80
2018-09-28T06:58:15.095Z,13.92
2018-09-28T06:59:14.902Z,14.04
2018-09-28T07:00:14.825Z,14.14
2018-09-28T07:01:14.655Z,14.13
2018-09-28T07:02:14.532Z,14.07
2018-09-28T07:03:14.411Z,14.02
2018-09-28T07:04:14.285Z,14.07
2018-09-28T07:05:14.160Z,14.24
2018-09-28T07:06:14.097Z,14.19
2018-09-28T07:07:13.917Z,14.21
2018-09-28T07:08:13.791Z,14.21
2018-09-28T07:09:13.670Z,14.31
2018-09-28T07:10:13.547Z,14.32
2018-09-28T07:11:13.423Z,14.44
2018-09-28T07:12:13.364Z,14.52
2018-09-28T07:13:13.176Z,14.49
2018-09-28T07:14:13.055Z,14.57
2018-09-28T07:15:12.941Z,14.56
2018-09-28T07:16:12.854Z,14.47
2018-09-28T07:17:12.687Z,14.53
2018-09-28T07:18:12.570Z,14.61
2018-09-28T07:19:12.444Z,14.37
2018-09-28T07:20:12.318Z,14.34
2018-09-28T07:21:12.196Z,14.21
2018-09-28T07:22:12.077Z,14.46
2018-09-28T07:23:11.951Z,14.49
2018-09-28T07:24:11.852Z,14.65
2018-09-28T07:25:11.836Z,14.78
2018-09-28T07:26:11.586Z,15.06
2018-09-28T07:27:11.461Z,14.99
2018-09-28T07:28:11.338Z,15.06
2018-09-28T07:29:11.256Z,15.12
2018-09-28T07:30:11.101Z,15.20
2018-09-28T07:31:10.972Z,15.15
2018-09-28T07:32:10.851Z,15.21
2018-09-28T07:33:10.728Z,15.13
2018-09-28T07:34:10.604Z,15.27
2018-09-28T07:35:10.488Z,15.19
2018-09-28T07:36:10.513Z,15.28
2018-09-28T07:37:10.333Z,15.35
2018-09-28T07:38:10.117Z,15.42
2018-09-28T07:39:10.004Z,15.63
2018-09-28T07:40:09.873Z,15.72
2018-09-28T07:41:09.751Z,15.86
2018-09-28T07:42:09.672Z,15.89
2018-09-28T07:43:09.516Z,16.03
2018-09-28T07:44:09.385Z,16.22
2018-09-28T07:45:09.264Z,16.40
2018-09-28T07:46:09.144Z,16.26
2018-09-28T07:47:09.021Z,16.25
2018-09-28T07:48:08.902Z,16.25
2018-09-28T07:49:08.807Z,16.35
2018-09-28T07:50:08.656Z,16.22
2018-09-28T07:51:08.536Z,16.23
2018-09-28T07:52:08.416Z,16.18
2018-09-28T07:53:08.292Z,16.30
2018-09-28T07:54:08.171Z,16.33
2018-09-28T07:55:08.051Z,16.34
2018-09-28T07:56:07.929Z,16.50
2018-09-28T07:57:07.809Z,16.38
2018-09-28T07:58:07.687Z,16.65
2018-09-28T07:59:07.565Z,16.71
2018-09-28T08:00:07.445Z,16.68
2018-09-28T08:01:07.323Z,16.58
2018-09-28T08:02:07.202Z,16.81
2018-09-28T08:03:07.082Z,16.73
2018-09-28T08:04:06.961Z,16.67
2018-09-28T08:05:06.841Z,16.73
2018-09-28T08:06:06.719Z,16.96
2018-09-28T08:07:06.598Z,17.00
2018-09-28T08:08:06.477Z,16.99
2018-09-28T08:09:06.364Z,16.83
2018-09-28T08:10:06.237Z,16.95
2018-09-28T08:11:06.116Z,17.04
2018-09-28T08:12:05.992Z,17.15
2018-09-28T08:13:05.873Z,17.22
2018-09-28T08:14:05.755Z,17.33
2018-09-28T08:15:05.633Z,17.62
2018-09-28T08:16:05.512Z,17.78
2018-09-28T08:17:05.390Z,18.00
2018-09-28T08:18:05.273Z,17.78
2018-09-28T08:19:05.150Z,17.76
2018-09-28T08:20:05.035Z,17.95
2018-09-28T08:21:04.910Z,18.00
2018-09-28T08:22:04.792Z,17.84
2018-09-28T08:23:04.673Z,17.59
2018-09-28T08:24:04.549Z,17.32
2018-09-28T08:25:04.430Z,17.29
2018-09-28T08:26:04.328Z,17.35
2018-09-28T08:27:04.195Z,17.54
2018-09-28T08:28:04.070Z,17.57
2018-09-28T08:29:03.947Z,17.59
2018-09-28T08:30:03.832Z,17.48
2018-09-28T08:31:03.707Z,17.50
2018-09-28T08:32:03.592Z,17.57
2018-09-28T08:33:03.467Z,17.89
2018-09-28T08:34:03.346Z,17.94
2018-09-28T08:35:03.230Z,18.18
2018-09-28T08:36:03.107Z,18.29
2018-09-28T08:37:02.986Z,18.58
2018-09-28T08:38:02.870Z,18.59
2018-09-28T08:39:02.748Z,18.62
2018-09-28T08:40:02.628Z,18.57
2018-09-28T08:41:02.512Z,18.67
2018-09-28T08:42:02.389Z,18.62
2018-09-28T08:43:02.271Z,18.72
2018-09-28T08:44:02.149Z,18.61
2018-09-28T08:45:02.038Z,18.67
2018-09-28T08:46:01.915Z,18.80
2018-09-28T08:47:01.796Z,18.94
2018-09-28T08:48:01.673Z,18.72
2018-09-28T08:49:01.609Z,18.72
2018-09-28T08:50:01.436Z,18.55
2018-09-28T08:51:01.322Z,18.77
2018-09-28T08:52:01.196Z,19.05
2018-09-28T08:53:01.078Z,19.18
2018-09-28T08:54:00.958Z,19.20
2018-09-28T08:55:00.838Z,19.06
2018-09-28T08:56:00.719Z,18.73
2018-09-28T08:57:00.599Z,19.10
2018-09-28T08:58:00.486Z,19.01
2018-09-28T08:59:00.360Z,19.42
2018-09-28T09:00:00.247Z,19.50
2018-09-28T09:01:00.124Z,19.50
2018-09-28T09:02:00.012Z,19.50
2018-09-28T09:02:59.889Z,19.55
2018-09-28T09:03:59.768Z,19.48
2018-09-28T09:04:59.649Z,19.79
2018-09-28T09:05:59.531Z,19.79
2018-09-28T09:06:59.418Z,20.03
2018-09-28T09:07:59.293Z,19.79
2018-09-28T09:08:59.199Z,19.57
2018-09-28T09:09:59.058Z,19.66
2018-09-28T09:10:58.938Z,19.70
2018-09-28T09:11:58.818Z,19.80
2018-09-28T09:12:58.700Z,19.76
2018-09-28T09:13:58.583Z,19.93
2018-09-28T09:14:58.469Z,19.93
2018-09-28T09:15:58.347Z,20.02
2018-09-28T09:16:58.230Z,20.13
2018-09-28T09:17:58.153Z,20.34
2018-09-28T09:18:57.993Z,20.62
2018-09-28T09:19:57.874Z,20.56
2018-09-28T09:20:57.754Z,20.72
2018-09-28T09:21:57.638Z,20.96
2018-09-28T09:22:57.521Z,21.26
2018-09-28T09:23:57.451Z,21.38
2018-09-28T09:24:57.285Z,21.08
2018-09-28T09:25:57.167Z,21.01
2018-09-28T09:26:57.048Z,21.02
2018-09-28T09:27:56.932Z,20.87
2018-09-28T09:28:56.814Z,21.01
2018-09-28T09:29:56.697Z,21.29
2018-09-28T09:30:56.578Z,21.32
2018-09-28T09:31:56.460Z,21.06
2018-09-28T09:32:56.344Z,20.74
2018-09-28T09:33:56.225Z,20.56
2018-09-28T09:34:56.114Z,20.76
2018-09-28T09:35:55.991Z,20.84
2018-09-28T09:36:55.875Z,20.81
2018-09-28T09:37:55.756Z,20.80
2018-09-28T09:38:55.641Z,20.74
2018-09-28T09:39:55.521Z,20.62
2018-09-28T09:40:55.404Z,20.38
2018-09-28T09:41:55.288Z,20.42
2018-09-28T09:42:55.172Z,20.64
2018-09-28T09:43:55.052Z,20.95
2018-09-28T09:44:54.934Z,20.93
2018-09-28T09:45:54.817Z,20.89
2018-09-28T09:46:54.701Z,21.19
2018-09-28T09:47:54.581Z,21.59
2018-09-28T09:48:54.463Z,21.61
2018-09-28T09:49:54.347Z,21.90
2018-09-28T09:50:54.231Z,21.78
2018-09-28T09:51:54.111Z,21.56
2018-09-28T09:52:53.994Z,21.63
2018-09-28T09:53:53.878Z,21.64
2018-09-28T09:54:53.762Z,21.85
2018-09-28T09:55:53.644Z,21.36
2018-09-28T09:56:53.525Z,21.48
2018-09-28T09:57:53.477Z,21.57
2018-09-28T09:58:53.293Z,21.75
2018-09-28T09:59:53.176Z,21.97
2018-09-28T10:00:53.061Z,22.25
2018-09-28T10:01:52.943Z,22.06
2018-09-28T10:02:52.827Z,22.14
2018-09-28T10:03:52.707Z,22.44
2018-09-28T10:04:52.591Z,22.54
2018-09-28T10:05:52.476Z,22.50
2018-09-28T10:06:52.365Z,22.35
2018-09-28T10:07:52.243Z,22.47
2018-09-28T10:08:52.126Z,22.71
2018-09-28T10:09:52.022Z,22.71
2018-09-28T10:10:51.896Z,22.68
2018-09-28T10:11:51.777Z,22.59
2018-09-28T10:12:51.682Z,21.90
2018-09-28T10:13:51.544Z,21.45
2018-09-28T10:14:51.430Z,21.95
2018-09-28T10:15:51.313Z,22.32
2018-09-28T10:16:51.201Z,22.38
2018-09-28T10:17:51.082Z,22.87
2018-09-28T10:18:51.002Z,22.72
2018-09-28T10:19:50.851Z,23.02
2018-09-28T10:20:50.734Z,22.84
2018-09-28T10:21:50.619Z,22.83
2018-09-28T10:22:50.504Z,23.07
2018-09-28T10:23:50.386Z,22.84
2018-09-28T10:24:50.271Z,21.98
2018-09-28T10:25:50.156Z,21.71
2018-09-28T10:26:50.040Z,21.99
2018-09-28T10:27:49.950Z,22.13
2018-09-28T10:28:49.807Z,22.44
2018-09-28T10:29:49.693Z,22.65
2018-09-28T10:30:49.582Z,22.65
2018-09-28T10:31:49.462Z,22.83
2018-09-28T10:32:49.345Z,22.78
2018-09-28T10:33:49.231Z,22.80
2018-09-28T10:34:49.210Z,23.17
2018-09-28T10:35:48.997Z,23.15
2018-09-28T10:36:48.886Z,23.27
2018-09-28T10:37:48.764Z,23.40
2018-09-28T10:38:48.651Z,23.24
2018-09-28T10:39:48.610Z,23.31
2018-09-28T10:40:48.490Z,23.45
2018-09-28T10:41:48.304Z,23.67
2018-09-28T10:42:48.188Z,23.62
2018-09-28T10:43:48.070Z,23.42
2018-09-28T10:44:47.959Z,23.31
2018-09-28T10:45:47.899Z,23.50
2018-09-28T10:46:47.802Z,23.42
2018-09-28T10:47:47.611Z,23.45
2018-09-28T10:48:47.495Z,22.89
2018-09-28T10:49:47.380Z,22.09
2018-09-28T10:50:47.310Z,22.32
2018-09-28T10:51:47.245Z,22.60
2018-09-28T10:52:47.154Z,22.94
2018-09-28T10:53:46.918Z,22.93
2018-09-28T10:54:46.802Z,22.49
2018-09-28T10:55:46.683Z,22.83
2018-09-28T10:56:46.571Z,22.64
2018-09-28T10:57:46.457Z,22.99
2018-09-28T10:58:46.355Z,23.38
2018-09-28T10:59:46.225Z,22.71
2018-09-28T11:00:46.109Z,22.59
2018-09-28T11:01:45.991Z,22.71
2018-09-28T11:02:45.875Z,23.05
2018-09-28T11:03:45.839Z,23.22
2018-09-28T11:04:45.724Z,22.94
2018-09-28T11:05:45.530Z,22.28
2018-09-28T11:06:45.414Z,22.44
2018-09-28T11:07:45.293Z,22.82
2018-09-28T11:08:45.177Z,23.14
2018-09-28T11:09:45.129Z,23.15
2018-09-28T11:10:44.976Z,23.31
2018-09-28T11:11:44.832Z,22.64
2018-09-28T11:12:44.715Z,22.39
2018-09-28T11:13:44.635Z,21.99
2018-09-28T11:14:44.481Z,22.02
2018-09-28T11:15:44.412Z,21.75
2018-09-28T11:16:44.250Z,21.61
2018-09-28T11:17:44.133Z,21.74
2018-09-28T11:18:44.020Z,22.01
2018-09-28T11:19:43.903Z,21.94
2018-09-28T11:20:43.786Z,21.91
2018-09-28T11:21:43.730Z,22.01
2018-09-28T11:22:43.550Z,22.01
2018-09-28T11:23:43.433Z,21.67
2018-09-28T11:24:43.314Z,21.76
2018-09-28T11:25:43.200Z,21.91
2018-09-28T11:26:43.086Z,21.85
2018-09-28T11:27:43.016Z,21.98
2018-09-28T11:28:42.844Z,21.94
2018-09-28T11:29:42.727Z,21.71
2018-09-28T11:30:42.611Z,21.50
2018-09-28T11:31:42.491Z,21.32
2018-09-28T11:32:42.378Z,21.42
2018-09-28T11:33:42.281Z,21.60
2018-09-28T11:34:42.139Z,21.46
2018-09-28T11:35:42.021Z,21.34
2018-09-28T11:36:41.904Z,21.35
2018-09-28T11:37:41.800Z,21.51
2018-09-28T11:38:41.698Z,21.20
2018-09-28T11:39:41.617Z,21.09
2018-09-28T11:40:41.439Z,20.93
2018-09-28T11:41:41.313Z,21.19
2018-09-28T11:42:41.197Z,21.44
2018-09-28T11:43:41.076Z,21.35
2018-09-28T11:44:40.960Z,21.54
2018-09-28T11:45:40.902Z,21.48
2018-09-28T11:46:40.724Z,21.48
2018-09-28T11:47:40.606Z,21.44
2018-09-28T11:48:40.491Z,21.60
2018-09-28T11:49:40.369Z,21.72
2018-09-28T11:50:40.254Z,21.81
2018-09-28T11:51:40.205Z,21.85
2018-09-28T11:52:40.016Z,21.81
2018-09-28T11:53:39.896Z,21.90
2018-09-28T11:54:39.802Z,21.85
2018-09-28T11:55:39.661Z,22.01
2018-09-28T11:56:39.543Z,22.01
2018-09-28T11:57:39.496Z,21.97
2018-09-28T11:58:39.311Z,22.07
2018-09-28T11:59:39.205Z,21.95
2018-09-28T12:00:39.071Z,21.99
2018-09-28T12:01:38.957Z,21.92
2018-09-28T12:02:38.836Z,21.88
2018-09-28T12:03:38.774Z,21.83
2018-09-28T12:04:38.602Z,21.98
2018-09-28T12:05:38.482Z,22.12
2018-09-28T12:06:38.470Z,21.92
2018-09-28T12:07:38.247Z,21.95
2018-09-28T12:08:38.128Z,22.12
2018-09-28T12:09:38.100Z,21.98
2018-09-28T12:10:37.893Z,21.76
2018-09-28T12:11:37.774Z,21.75
2018-09-28T12:12:37.715Z,21.46
2018-09-28T12:13:37.540Z,21.34
2018-09-28T12:14:37.422Z,21.21
2018-09-28T12:15:37.322Z,21.48
2018-09-28T12:16:37.187Z,21.53
2018-09-28T12:17:37.070Z,21.60
2018-09-28T12:18:37.008Z,21.50
2018-09-28T12:19:36.831Z,21.69
2018-09-28T12:20:36.712Z,21.78
2018-09-28T12:21:36.607Z,21.60
2018-09-28T12:22:36.475Z,21.50
2018-09-28T12:23:36.354Z,21.42
2018-09-28T12:24:36.276Z,21.59
2018-09-28T12:25:36.120Z,21.78
2018-09-28T12:26:36.003Z,21.60
2018-09-28T12:27:35.944Z,21.46
2018-09-28T12:28:35.763Z,21.56
2018-09-28T12:29:35.644Z,21.74
2018-09-28T12:30:35.542Z,21.85
2018-09-28T12:31:35.407Z,21.74
2018-09-28T12:32:35.290Z,21.82
2018-09-28T12:33:35.223Z,21.83
2018-09-28T12:34:35.053Z,21.75
2018-09-28T12:35:34.997Z,21.69
2018-09-28T12:36:34.854Z,21.64
2018-09-28T12:37:34.697Z,21.45
2018-09-28T12:38:34.578Z,21.54
2018-09-28T12:39:34.502Z,21.57
2018-09-28T12:40:34.342Z,21.56
2018-09-28T12:41:34.223Z,21.51
2018-09-28T12:42:34.120Z,21.63
2018-09-28T12:43:35.028Z,21.59
2018-09-28T12:44:33.890Z,21.72
2018-09-28T12:45:33.774Z,21.78
2018-09-28T12:46:33.637Z,21.57
2018-09-28T12:47:33.512Z,21.50
2018-09-28T12:48:33.451Z,21.44
2018-09-28T12:49:33.276Z,21.35
2018-09-28T12:50:33.174Z,21.29
2018-09-28T12:51:33.039Z,21.42
2018-09-28T12:52:32.921Z,21.45
2018-09-28T12:53:32.829Z,21.29
2018-09-28T12:54:32.739Z,21.44
2018-09-28T12:55:32.565Z,21.51
2018-09-28T12:56:32.450Z,21.45